sensor_id;sensor_type;location;lat;lon;timestamp;P1;durP1;ratioP1;P2;durP2;ratioP2
16320;SDS011;8269;50.990;4.494;2022-07-23T00:01:16;25.45;;;22.75;;
16320;SDS011;8269;50.990;4.494;2022-07-23T00:03:42;24.63;;;22.23;;
16320;SDS011;8269;50.990;4.494;2022-07-23T00:06:07;23.88;;;21.58;;
16320;SDS011;8269;50.990;4.494;2022-07-23T00:08:33;24.45;;;21.98;;
16320;SDS011;8269;50.990;4.494;2022-07-23T00:10:59;27.08;;;21.63;;
16320;SDS011;8269;50.990;4.494;2022-07-23T00:13:25;24.27;;;21.63;;
16320;SDS011;8269;50.990;4.494;2022-07-23T00:15:51;24.17;;;21.77;;
16320;SDS011;8269;50.990;4.494;2022-07-23T00:18:17;24.52;;;22.13;;
16320;SDS011;8269;50.990;4.494;2022-07-23T00:20:42;23.70;;;21.42;;
16320;SDS011;8269;50.990;4.494;2022-07-23T00:23:08;24.90;;;22.30;;
16320;SDS011;8269;50.990;4.494;2022-07-23T00:25:34;25.33;;;22.27;;
16320;SDS011;8269;50.990;4.494;2022-07-23T00:28:00;24.45;;;21.95;;
16320;SDS011;8269;50.990;4.494;2022-07-23T00:30:27;25.88;;;23.05;;
16320;SDS011;8269;50.990;4.494;2022-07-23T00:32:55;24.60;;;22.23;;
16320;SDS011;8269;50.990;4.494;2022-07-23T00:35:23;24.98;;;22.48;;
16320;SDS011;8269;50.990;4.494;2022-07-23T00:37:50;25.08;;;22.42;;
16320;SDS011;8269;50.990;4.494;2022-07-23T00:40:15;25.17;;;22.75;;
16320;SDS011;8269;50.990;4.494;2022-07-23T00:42:41;25.23;;;22.83;;
16320;SDS011;8269;50.990;4.494;2022-07-23T00:45:08;24.02;;;21.65;;
16320;SDS011;8269;50.990;4.494;2022-07-23T00:47:34;25.30;;;22.67;;
16320;SDS011;8269;50.990;4.494;2022-07-23T00:50:00;25.08;;;22.50;;
16320;SDS011;8269;50.990;4.494;2022-07-23T00:52:26;24.60;;;22.20;;
16320;SDS011;8269;50.990;4.494;2022-07-23T00:54:51;24.95;;;22.45;;
16320;SDS011;8269;50.990;4.494;2022-07-23T00:57:17;25.73;;;22.98;;
16320;SDS011;8269;50.990;4.494;2022-07-23T00:59:43;23.55;;;21.20;;
16320;SDS011;8269;50.990;4.494;2022-07-23T01:02:09;24.98;;;22.50;;
16320;SDS011;8269;50.990;4.494;2022-07-23T01:04:35;25.65;;;22.92;;
16320;SDS011;8269;50.990;4.494;2022-07-23T01:07:01;25.55;;;22.92;;
16320;SDS011;8269;50.990;4.494;2022-07-23T01:09:26;24.75;;;22.17;;
16320;SDS011;8269;50.990;4.494;2022-07-23T01:11:53;25.40;;;22.90;;
16320;SDS011;8269;50.990;4.494;2022-07-23T01:14:20;26.27;;;23.23;;
16320;SDS011;8269;50.990;4.494;2022-07-23T01:16:47;25.45;;;22.85;;
16320;SDS011;8269;50.990;4.494;2022-07-23T01:19:14;26.15;;;23.42;;
16320;SDS011;8269;50.990;4.494;2022-07-23T01:21:48;25.20;;;22.60;;
16320;SDS011;8269;50.990;4.494;2022-07-23T01:24:15;26.05;;;23.33;;
16320;SDS011;8269;50.990;4.494;2022-07-23T01:26:43;25.92;;;23.33;;
16320;SDS011;8269;50.990;4.494;2022-07-23T01:29:10;26.02;;;23.33;;
16320;SDS011;8269;50.990;4.494;2022-07-23T01:31:36;25.90;;;23.27;;
16320;SDS011;8269;50.990;4.494;2022-07-23T01:34:02;25.48;;;22.98;;
16320;SDS011;8269;50.990;4.494;2022-07-23T01:36:28;25.27;;;22.88;;
16320;SDS011;8269;50.990;4.494;2022-07-23T01:38:53;27.48;;;24.13;;
16320;SDS011;8269;50.990;4.494;2022-07-23T01:41:19;26.45;;;23.77;;
16320;SDS011;8269;50.990;4.494;2022-07-23T01:43:45;27.50;;;23.77;;
16320;SDS011;8269;50.990;4.494;2022-07-23T01:46:11;26.98;;;24.38;;
16320;SDS011;8269;50.990;4.494;2022-07-23T01:48:37;26.45;;;23.92;;
16320;SDS011;8269;50.990;4.494;2022-07-23T01:51:02;26.50;;;23.75;;
16320;SDS011;8269;50.990;4.494;2022-07-23T01:53:28;25.85;;;23.20;;
16320;SDS011;8269;50.990;4.494;2022-07-23T01:55:56;25.65;;;23.10;;
16320;SDS011;8269;50.990;4.494;2022-07-23T01:58:22;25.00;;;22.55;;
16320;SDS011;8269;50.990;4.494;2022-07-23T02:00:48;28.80;;;24.08;;
16320;SDS011;8269;50.990;4.494;2022-07-23T02:03:13;26.55;;;23.73;;
16320;SDS011;8269;50.990;4.494;2022-07-23T02:05:39;25.23;;;22.77;;
16320;SDS011;8269;50.990;4.494;2022-07-23T02:08:05;25.50;;;22.88;;
16320;SDS011;8269;50.990;4.494;2022-07-23T02:10:30;27.65;;;24.15;;
16320;SDS011;8269;50.990;4.494;2022-07-23T02:12:57;26.23;;;23.48;;
16320;SDS011;8269;50.990;4.494;2022-07-23T02:15:23;27.67;;;24.70;;
16320;SDS011;8269;50.990;4.494;2022-07-23T02:17:48;26.63;;;23.83;;
16320;SDS011;8269;50.990;4.494;2022-07-23T02:20:14;28.20;;;23.55;;
16320;SDS011;8269;50.990;4.494;2022-07-23T02:22:40;25.45;;;22.45;;
16320;SDS011;8269;50.990;4.494;2022-07-23T02:25:06;25.50;;;23.10;;
16320;SDS011;8269;50.990;4.494;2022-07-23T02:27:33;26.92;;;23.52;;
16320;SDS011;8269;50.990;4.494;2022-07-23T02:29:59;27.98;;;23.75;;
16320;SDS011;8269;50.990;4.494;2022-07-23T02:32:24;25.38;;;22.63;;
16320;SDS011;8269;50.990;4.494;2022-07-23T02:34:50;25.95;;;23.30;;
16320;SDS011;8269;50.990;4.494;2022-07-23T02:37:16;24.58;;;22.00;;
16320;SDS011;8269;50.990;4.494;2022-07-23T02:39:42;23.92;;;21.55;;
16320;SDS011;8269;50.990;4.494;2022-07-23T02:42:08;25.38;;;22.70;;
16320;SDS011;8269;50.990;4.494;2022-07-23T02:44:34;24.77;;;22.27;;
16320;SDS011;8269;50.990;4.494;2022-07-23T02:47:00;26.13;;;23.45;;
16320;SDS011;8269;50.990;4.494;2022-07-23T02:49:27;23.90;;;21.60;;
16320;SDS011;8269;50.990;4.494;2022-07-23T02:51:52;24.13;;;21.63;;
16320;SDS011;8269;50.990;4.494;2022-07-23T02:54:18;24.23;;;21.80;;
16320;SDS011;8269;50.990;4.494;2022-07-23T02:56:44;24.90;;;22.45;;
16320;SDS011;8269;50.990;4.494;2022-07-23T02:59:10;25.48;;;22.55;;
16320;SDS011;8269;50.990;4.494;2022-07-23T03:01:35;25.60;;;22.98;;
16320;SDS011;8269;50.990;4.494;2022-07-23T03:04:01;25.17;;;22.02;;
16320;SDS011;8269;50.990;4.494;2022-07-23T03:06:27;24.35;;;21.83;;
16320;SDS011;8269;50.990;4.494;2022-07-23T03:08:53;23.42;;;21.08;;
16320;SDS011;8269;50.990;4.494;2022-07-23T03:11:18;24.30;;;21.77;;
16320;SDS011;8269;50.990;4.494;2022-07-23T03:13:44;23.45;;;21.02;;
16320;SDS011;8269;50.990;4.494;2022-07-23T03:16:10;27.50;;;24.27;;
16320;SDS011;8269;50.990;4.494;2022-07-23T03:18:35;27.05;;;24.10;;
16320;SDS011;8269;50.990;4.494;2022-07-23T03:21:01;24.25;;;21.67;;
16320;SDS011;8269;50.990;4.494;2022-07-23T03:23:27;24.17;;;21.80;;
16320;SDS011;8269;50.990;4.494;2022-07-23T03:25:53;24.75;;;22.25;;
16320;SDS011;8269;50.990;4.494;2022-07-23T03:28:18;23.15;;;20.98;;
16320;SDS011;8269;50.990;4.494;2022-07-23T03:30:45;25.25;;;22.25;;
16320;SDS011;8269;50.990;4.494;2022-07-23T03:33:12;25.10;;;22.63;;
16320;SDS011;8269;50.990;4.494;2022-07-23T03:35:38;24.90;;;22.13;;
16320;SDS011;8269;50.990;4.494;2022-07-23T03:38:04;23.48;;;21.23;;
16320;SDS011;8269;50.990;4.494;2022-07-23T03:40:30;24.17;;;21.83;;
16320;SDS011;8269;50.990;4.494;2022-07-23T03:42:56;23.45;;;21.33;;
16320;SDS011;8269;50.990;4.494;2022-07-23T03:45:21;23.48;;;21.10;;
16320;SDS011;8269;50.990;4.494;2022-07-23T03:47:47;24.75;;;22.25;;
16320;SDS011;8269;50.990;4.494;2022-07-23T03:50:13;24.15;;;21.75;;
16320;SDS011;8269;50.990;4.494;2022-07-23T03:52:39;25.13;;;22.33;;
16320;SDS011;8269;50.990;4.494;2022-07-23T03:55:04;24.88;;;22.25;;
16320;SDS011;8269;50.990;4.494;2022-07-23T03:57:31;24.85;;;22.08;;
16320;SDS011;8269;50.990;4.494;2022-07-23T03:59:57;24.50;;;22.05;;
16320;SDS011;8269;50.990;4.494;2022-07-23T04:02:22;24.83;;;22.15;;
16320;SDS011;8269;50.990;4.494;2022-07-23T04:04:48;25.48;;;22.77;;
16320;SDS011;8269;50.990;4.494;2022-07-23T04:07:14;24.88;;;22.35;;
16320;SDS011;8269;50.990;4.494;2022-07-23T04:09:39;24.90;;;22.30;;
16320;SDS011;8269;50.990;4.494;2022-07-23T04:12:06;24.52;;;21.98;;
16320;SDS011;8269;50.990;4.494;2022-07-23T04:14:32;24.08;;;21.65;;
16320;SDS011;8269;50.990;4.494;2022-07-23T04:16:58;25.83;;;22.38;;
16320;SDS011;8269;50.990;4.494;2022-07-23T04:19:24;26.33;;;22.33;;
16320;SDS011;8269;50.990;4.494;2022-07-23T04:21:51;23.40;;;20.95;;
16320;SDS011;8269;50.990;4.494;2022-07-23T04:24:17;25.00;;;22.00;;
16320;SDS011;8269;50.990;4.494;2022-07-23T04:26:43;22.92;;;20.63;;
16320;SDS011;8269;50.990;4.494;2022-07-23T04:29:09;21.63;;;19.50;;
16320;SDS011;8269;50.990;4.494;2022-07-23T04:31:35;20.55;;;18.38;;
16320;SDS011;8269;50.990;4.494;2022-07-23T04:34:01;19.48;;;17.63;;
16320;SDS011;8269;50.990;4.494;2022-07-23T04:36:26;18.90;;;17.05;;
16320;SDS011;8269;50.990;4.494;2022-07-23T04:38:53;18.65;;;16.75;;
16320;SDS011;8269;50.990;4.494;2022-07-23T04:41:19;19.02;;;16.30;;
16320;SDS011;8269;50.990;4.494;2022-07-23T04:43:44;17.23;;;15.57;;
16320;SDS011;8269;50.990;4.494;2022-07-23T04:46:10;17.40;;;15.60;;
16320;SDS011;8269;50.990;4.494;2022-07-23T04:48:36;17.75;;;15.23;;
16320;SDS011;8269;50.990;4.494;2022-07-23T04:51:02;16.73;;;14.88;;
16320;SDS011;8269;50.990;4.494;2022-07-23T04:53:28;19.45;;;14.95;;
16320;SDS011;8269;50.990;4.494;2022-07-23T04:55:53;16.50;;;14.90;;
16320;SDS011;8269;50.990;4.494;2022-07-23T04:58:19;19.83;;;15.00;;
16320;SDS011;8269;50.990;4.494;2022-07-23T05:00:45;16.42;;;14.65;;
16320;SDS011;8269;50.990;4.494;2022-07-23T05:03:11;15.98;;;14.45;;
16320;SDS011;8269;50.990;4.494;2022-07-23T05:05:37;14.95;;;13.45;;
16320;SDS011;8269;50.990;4.494;2022-07-23T05:08:02;15.88;;;14.13;;
16320;SDS011;8269;50.990;4.494;2022-07-23T05:10:28;15.25;;;13.63;;
16320;SDS011;8269;50.990;4.494;2022-07-23T05:12:54;18.10;;;14.30;;
16320;SDS011;8269;50.990;4.494;2022-07-23T05:15:19;14.57;;;12.93;;
16320;SDS011;8269;50.990;4.494;2022-07-23T05:17:45;15.48;;;13.82;;
16320;SDS011;8269;50.990;4.494;2022-07-23T05:20:11;14.57;;;13.07;;
16320;SDS011;8269;50.990;4.494;2022-07-23T05:22:38;15.82;;;13.00;;
16320;SDS011;8269;50.990;4.494;2022-07-23T05:25:04;15.27;;;13.20;;
16320;SDS011;8269;50.990;4.494;2022-07-23T05:27:30;15.57;;;11.98;;
16320;SDS011;8269;50.990;4.494;2022-07-23T05:29:57;19.70;;;13.30;;
16320;SDS011;8269;50.990;4.494;2022-07-23T05:32:23;14.55;;;13.05;;
16320;SDS011;8269;50.990;4.494;2022-07-23T05:34:48;14.52;;;12.43;;
16320;SDS011;8269;50.990;4.494;2022-07-23T05:37:14;13.25;;;11.95;;
16320;SDS011;8269;50.990;4.494;2022-07-23T05:39:40;13.50;;;12.10;;
16320;SDS011;8269;50.990;4.494;2022-07-23T05:42:06;13.90;;;12.50;;
16320;SDS011;8269;50.990;4.494;2022-07-23T05:44:32;13.32;;;11.93;;
16320;SDS011;8269;50.990;4.494;2022-07-23T05:46:58;15.30;;;11.85;;
16320;SDS011;8269;50.990;4.494;2022-07-23T05:49:24;12.40;;;11.15;;
16320;SDS011;8269;50.990;4.494;2022-07-23T05:51:49;13.30;;;11.98;;
16320;SDS011;8269;50.990;4.494;2022-07-23T05:54:15;16.02;;;12.25;;
16320;SDS011;8269;50.990;4.494;2022-07-23T05:56:41;13.20;;;11.90;;
16320;SDS011;8269;50.990;4.494;2022-07-23T05:59:06;13.10;;;11.80;;
16320;SDS011;8269;50.990;4.494;2022-07-23T06:01:32;13.00;;;11.65;;
16320;SDS011;8269;50.990;4.494;2022-07-23T06:03:58;13.40;;;12.10;;
16320;SDS011;8269;50.990;4.494;2022-07-23T06:06:23;12.90;;;11.55;;
16320;SDS011;8269;50.990;4.494;2022-07-23T06:08:49;14.18;;;12.13;;
16320;SDS011;8269;50.990;4.494;2022-07-23T06:11:15;13.38;;;11.55;;
16320;SDS011;8269;50.990;4.494;2022-07-23T06:13:40;13.10;;;11.75;;
16320;SDS011;8269;50.990;4.494;2022-07-23T06:16:06;13.68;;;12.27;;
16320;SDS011;8269;50.990;4.494;2022-07-23T06:18:31;14.05;;;12.00;;
16320;SDS011;8269;50.990;4.494;2022-07-23T06:20:57;14.40;;;12.48;;
16320;SDS011;8269;50.990;4.494;2022-07-23T06:23:23;15.20;;;13.25;;
16320;SDS011;8269;50.990;4.494;2022-07-23T06:25:48;13.75;;;12.30;;
16320;SDS011;8269;50.990;4.494;2022-07-23T06:28:14;13.98;;;12.60;;
16320;SDS011;8269;50.990;4.494;2022-07-23T06:30:40;12.68;;;11.13;;
16320;SDS011;8269;50.990;4.494;2022-07-23T06:33:06;15.27;;;11.02;;
16320;SDS011;8269;50.990;4.494;2022-07-23T06:35:31;13.05;;;11.75;;
16320;SDS011;8269;50.990;4.494;2022-07-23T06:37:58;12.68;;;11.23;;
16320;SDS011;8269;50.990;4.494;2022-07-23T06:40:25;12.43;;;10.48;;
16320;SDS011;8269;50.990;4.494;2022-07-23T06:42:51;13.65;;;10.68;;
16320;SDS011;8269;50.990;4.494;2022-07-23T06:45:17;13.38;;;10.82;;
16320;SDS011;8269;50.990;4.494;2022-07-23T06:47:43;12.05;;;10.75;;
16320;SDS011;8269;50.990;4.494;2022-07-23T06:50:09;11.77;;;9.95;;
16320;SDS011;8269;50.990;4.494;2022-07-23T06:52:35;10.90;;;9.77;;
16320;SDS011;8269;50.990;4.494;2022-07-23T06:55:01;11.10;;;9.80;;
16320;SDS011;8269;50.990;4.494;2022-07-23T06:57:27;12.60;;;10.00;;
16320;SDS011;8269;50.990;4.494;2022-07-23T06:59:52;11.00;;;9.90;;
16320;SDS011;8269;50.990;4.494;2022-07-23T07:02:18;11.63;;;9.95;;
16320;SDS011;8269;50.990;4.494;2022-07-23T07:04:44;13.00;;;9.32;;
16320;SDS011;8269;50.990;4.494;2022-07-23T07:07:10;11.40;;;9.77;;
16320;SDS011;8269;50.990;4.494;2022-07-23T07:09:36;11.10;;;9.98;;
16320;SDS011;8269;50.990;4.494;2022-07-23T07:12:02;12.82;;;10.27;;
16320;SDS011;8269;50.990;4.494;2022-07-23T07:14:29;10.70;;;9.60;;
16320;SDS011;8269;50.990;4.494;2022-07-23T07:16:55;11.68;;;9.82;;
16320;SDS011;8269;50.990;4.494;2022-07-23T07:19:20;9.93;;;9.00;;
16320;SDS011;8269;50.990;4.494;2022-07-23T07:21:46;10.30;;;9.30;;
16320;SDS011;8269;50.990;4.494;2022-07-23T07:24:11;12.63;;;8.75;;
16320;SDS011;8269;50.990;4.494;2022-07-23T07:26:37;11.85;;;9.43;;
16320;SDS011;8269;50.990;4.494;2022-07-23T07:29:04;10.50;;;9.27;;
16320;SDS011;8269;50.990;4.494;2022-07-23T07:31:30;10.68;;;9.68;;
16320;SDS011;8269;50.990;4.494;2022-07-23T07:33:55;11.43;;;9.38;;
16320;SDS011;8269;50.990;4.494;2022-07-23T07:36:22;12.52;;;9.57;;
16320;SDS011;8269;50.990;4.494;2022-07-23T07:38:48;12.02;;;9.80;;
16320;SDS011;8269;50.990;4.494;2022-07-23T07:41:13;11.95;;;9.07;;
16320;SDS011;8269;50.990;4.494;2022-07-23T07:43:39;11.10;;;8.98;;
16320;SDS011;8269;50.990;4.494;2022-07-23T07:46:05;10.68;;;9.05;;
16320;SDS011;8269;50.990;4.494;2022-07-23T07:48:34;11.23;;;9.13;;
16320;SDS011;8269;50.990;4.494;2022-07-23T07:51:03;13.25;;;9.05;;
16320;SDS011;8269;50.990;4.494;2022-07-23T07:53:30;11.32;;;9.20;;
16320;SDS011;8269;50.990;4.494;2022-07-23T07:55:55;12.55;;;8.30;;
16320;SDS011;8269;50.990;4.494;2022-07-23T07:58:21;9.85;;;8.85;;
16320;SDS011;8269;50.990;4.494;2022-07-23T08:00:47;10.10;;;8.25;;
16320;SDS011;8269;50.990;4.494;2022-07-23T08:03:12;11.30;;;8.15;;
16320;SDS011;8269;50.990;4.494;2022-07-23T08:05:40;9.82;;;8.55;;
16320;SDS011;8269;50.990;4.494;2022-07-23T08:08:06;10.60;;;7.93;;
16320;SDS011;8269;50.990;4.494;2022-07-23T08:10:31;10.38;;;8.45;;
16320;SDS011;8269;50.990;4.494;2022-07-23T08:12:57;9.88;;;8.25;;
16320;SDS011;8269;50.990;4.494;2022-07-23T08:15:26;11.68;;;7.50;;
16320;SDS011;8269;50.990;4.494;2022-07-23T08:17:53;9.27;;;7.22;;
16320;SDS011;8269;50.990;4.494;2022-07-23T08:20:21;9.57;;;7.65;;
16320;SDS011;8269;50.990;4.494;2022-07-23T08:25:16;12.52;;;8.27;;
16320;SDS011;8269;50.990;4.494;2022-07-23T08:27:46;10.60;;;7.60;;
16320;SDS011;8269;50.990;4.494;2022-07-23T08:30:12;8.70;;;7.65;;
16320;SDS011;8269;50.990;4.494;2022-07-23T08:32:51;9.88;;;7.43;;
16320;SDS011;8269;50.990;4.494;2022-07-23T08:35:22;11.38;;;7.32;;
16320;SDS011;8269;50.990;4.494;2022-07-23T08:37:53;11.57;;;8.00;;
16320;SDS011;8269;50.990;4.494;2022-07-23T08:40:19;11.20;;;7.90;;
16320;SDS011;8269;50.990;4.494;2022-07-23T08:42:46;8.60;;;7.57;;
16320;SDS011;8269;50.990;4.494;2022-07-23T08:45:13;10.40;;;7.80;;
16320;SDS011;8269;50.990;4.494;2022-07-23T08:47:41;8.75;;;7.70;;
16320;SDS011;8269;50.990;4.494;2022-07-23T08:50:08;9.40;;;7.28;;
16320;SDS011;8269;50.990;4.494;2022-07-23T08:52:35;10.80;;;7.45;;
16320;SDS011;8269;50.990;4.494;2022-07-23T08:55:02;9.02;;;7.47;;
16320;SDS011;8269;50.990;4.494;2022-07-23T08:57:28;9.45;;;8.55;;
16320;SDS011;8269;50.990;4.494;2022-07-23T08:59:54;11.98;;;7.55;;
16320;SDS011;8269;50.990;4.494;2022-07-23T09:02:21;9.60;;;8.25;;
16320;SDS011;8269;50.990;4.494;2022-07-23T09:04:46;10.35;;;7.63;;
16320;SDS011;8269;50.990;4.494;2022-07-23T09:07:12;9.60;;;8.10;;
16320;SDS011;8269;50.990;4.494;2022-07-23T09:09:38;9.90;;;7.43;;
16320;SDS011;8269;50.990;4.494;2022-07-23T09:12:04;10.65;;;7.78;;
16320;SDS011;8269;50.990;4.494;2022-07-23T09:14:35;8.70;;;6.85;;
16320;SDS011;8269;50.990;4.494;2022-07-23T09:17:13;6.63;;;5.90;;
16320;SDS011;8269;50.990;4.494;2022-07-23T09:19:40;7.93;;;6.10;;
16320;SDS011;8269;50.990;4.494;2022-07-23T09:25:06;8.65;;;6.20;;
16320;SDS011;8269;50.990;4.494;2022-07-23T09:27:51;7.97;;;6.78;;
16320;SDS011;8269;50.990;4.494;2022-07-23T09:30:22;9.40;;;6.57;;
16320;SDS011;8269;50.990;4.494;2022-07-23T09:33:08;11.00;;;6.72;;
16320;SDS011;8269;50.990;4.494;2022-07-23T09:35:43;10.73;;;6.82;;
16320;SDS011;8269;50.990;4.494;2022-07-23T09:38:09;9.18;;;7.00;;
16320;SDS011;8269;50.990;4.494;2022-07-23T09:40:34;8.30;;;5.30;;
16320;SDS011;8269;50.990;4.494;2022-07-23T09:43:00;9.93;;;5.85;;
16320;SDS011;8269;50.990;4.494;2022-07-23T09:45:26;9.68;;;6.28;;
16320;SDS011;8269;50.990;4.494;2022-07-23T09:47:51;13.10;;;5.45;;
16320;SDS011;8269;50.990;4.494;2022-07-23T09:50:37;6.75;;;5.28;;
16320;SDS011;8269;50.990;4.494;2022-07-23T09:53:03;8.52;;;4.80;;
16320;SDS011;8269;50.990;4.494;2022-07-23T09:55:32;6.53;;;4.80;;
16320;SDS011;8269;50.990;4.494;2022-07-23T09:58:08;5.72;;;3.85;;
16320;SDS011;8269;50.990;4.494;2022-07-23T10:00:38;7.43;;;5.07;;
16320;SDS011;8269;50.990;4.494;2022-07-23T10:03:05;8.10;;;5.32;;
16320;SDS011;8269;50.990;4.494;2022-07-23T10:05:31;7.18;;;3.95;;
16320;SDS011;8269;50.990;4.494;2022-07-23T10:08:00;9.40;;;4.10;;
16320;SDS011;8269;50.990;4.494;2022-07-23T10:10:27;5.72;;;3.60;;
16320;SDS011;8269;50.990;4.494;2022-07-23T10:12:54;8.05;;;4.78;;
16320;SDS011;8269;50.990;4.494;2022-07-23T10:15:40;6.20;;;4.40;;
16320;SDS011;8269;50.990;4.494;2022-07-23T10:18:06;6.38;;;4.85;;
16320;SDS011;8269;50.990;4.494;2022-07-23T10:20:34;7.25;;;4.72;;
16320;SDS011;8269;50.990;4.494;2022-07-23T10:23:19;7.00;;;3.90;;
16320;SDS011;8269;50.990;4.494;2022-07-23T10:39:08;6.80;;;3.67;;
16320;SDS011;8269;50.990;4.494;2022-07-23T10:41:40;5.75;;;3.92;;
16320;SDS011;8269;50.990;4.494;2022-07-23T10:44:14;5.53;;;3.20;;
16320;SDS011;8269;50.990;4.494;2022-07-23T10:47:00;4.05;;;2.88;;
16320;SDS011;8269;50.990;4.494;2022-07-23T10:58:00;5.35;;;3.10;;
16320;SDS011;8269;50.990;4.494;2022-07-23T11:00:28;5.80;;;3.20;;
16320;SDS011;8269;50.990;4.494;2022-07-23T11:02:57;5.05;;;2.70;;
16320;SDS011;8269;50.990;4.494;2022-07-23T11:05:25;4.25;;;2.70;;
16320;SDS011;8269;50.990;4.494;2022-07-23T11:10:36;5.40;;;2.78;;
16320;SDS011;8269;50.990;4.494;2022-07-23T11:34:52;4.60;;;2.70;;
16320;SDS011;8269;50.990;4.494;2022-07-23T11:37:34;3.85;;;2.65;;
16320;SDS011;8269;50.990;4.494;2022-07-23T11:40:06;3.30;;;2.30;;
16320;SDS011;8269;50.990;4.494;2022-07-23T11:42:35;3.55;;;2.65;;
16320;SDS011;8269;50.990;4.494;2022-07-23T11:45:02;4.00;;;2.63;;
16320;SDS011;8269;50.990;4.494;2022-07-23T11:47:29;3.72;;;2.63;;
16320;SDS011;8269;50.990;4.494;2022-07-23T11:49:55;4.72;;;2.70;;
16320;SDS011;8269;50.990;4.494;2022-07-23T11:52:22;5.40;;;2.70;;
16320;SDS011;8269;50.990;4.494;2022-07-23T11:54:57;4.05;;;2.70;;
16320;SDS011;8269;50.990;4.494;2022-07-23T11:57:26;3.72;;;2.50;;
16320;SDS011;8269;50.990;4.494;2022-07-23T12:00:36;3.58;;;2.70;;
16320;SDS011;8269;50.990;4.494;2022-07-23T12:02:49;4.00;;;2.58;;
16320;SDS011;8269;50.990;4.494;2022-07-23T12:05:21;4.90;;;2.78;;
16320;SDS011;8269;50.990;4.494;2022-07-23T12:07:49;3.45;;;2.67;;
16320;SDS011;8269;50.990;4.494;2022-07-23T12:12:48;3.47;;;2.63;;
16320;SDS011;8269;50.990;4.494;2022-07-23T12:15:18;3.67;;;2.65;;
16320;SDS011;8269;50.990;4.494;2022-07-23T12:17:47;3.67;;;2.72;;
16320;SDS011;8269;50.990;4.494;2022-07-23T12:20:21;4.45;;;3.10;;
16320;SDS011;8269;50.990;4.494;2022-07-23T12:22:50;5.28;;;2.70;;
16320;SDS011;8269;50.990;4.494;2022-07-23T12:25:19;6.68;;;2.75;;
16320;SDS011;8269;50.990;4.494;2022-07-23T12:27:57;4.88;;;2.78;;
16320;SDS011;8269;50.990;4.494;2022-07-23T12:30:28;7.68;;;3.15;;
16320;SDS011;8269;50.990;4.494;2022-07-23T12:33:01;4.90;;;2.92;;
16320;SDS011;8269;50.990;4.494;2022-07-23T12:35:32;4.57;;;3.00;;
16320;SDS011;8269;50.990;4.494;2022-07-23T12:38:05;10.45;;;3.08;;
16320;SDS011;8269;50.990;4.494;2022-07-23T12:40:36;4.63;;;3.20;;
16320;SDS011;8269;50.990;4.494;2022-07-23T12:43:03;6.03;;;3.50;;
16320;SDS011;8269;50.990;4.494;2022-07-23T12:45:47;3.55;;;2.70;;
16320;SDS011;8269;50.990;4.494;2022-07-23T12:48:18;4.25;;;2.75;;
16320;SDS011;8269;50.990;4.494;2022-07-23T12:53:26;5.40;;;3.10;;
16320;SDS011;8269;50.990;4.494;2022-07-23T12:56:04;5.15;;;3.28;;
16320;SDS011;8269;50.990;4.494;2022-07-23T13:01:05;5.00;;;3.28;;
16320;SDS011;8269;50.990;4.494;2022-07-23T13:03:32;4.65;;;3.42;;
16320;SDS011;8269;50.990;4.494;2022-07-23T13:06:00;4.72;;;3.55;;
16320;SDS011;8269;50.990;4.494;2022-07-23T13:08:29;5.85;;;3.38;;
16320;SDS011;8269;50.990;4.494;2022-07-23T13:10:56;5.05;;;3.22;;
16320;SDS011;8269;50.990;4.494;2022-07-23T13:13:23;5.75;;;3.60;;
16320;SDS011;8269;50.990;4.494;2022-07-23T13:15:51;5.88;;;3.80;;
16320;SDS011;8269;50.990;4.494;2022-07-23T13:18:18;6.55;;;3.85;;
16320;SDS011;8269;50.990;4.494;2022-07-23T13:20:46;7.28;;;3.97;;
16320;SDS011;8269;50.990;4.494;2022-07-23T13:23:12;5.95;;;3.88;;
16320;SDS011;8269;50.990;4.494;2022-07-23T13:25:39;6.43;;;4.10;;
16320;SDS011;8269;50.990;4.494;2022-07-23T13:28:05;7.30;;;4.57;;
16320;SDS011;8269;50.990;4.494;2022-07-23T13:30:31;5.72;;;3.90;;
16320;SDS011;8269;50.990;4.494;2022-07-23T13:32:58;6.45;;;4.15;;
16320;SDS011;8269;50.990;4.494;2022-07-23T13:35:24;5.95;;;4.57;;
16320;SDS011;8269;50.990;4.494;2022-07-23T13:37:49;7.60;;;3.95;;
16320;SDS011;8269;50.990;4.494;2022-07-23T13:40:15;6.00;;;3.90;;
16320;SDS011;8269;50.990;4.494;2022-07-23T13:42:41;6.03;;;4.10;;
16320;SDS011;8269;50.990;4.494;2022-07-23T13:45:07;5.38;;;4.13;;
16320;SDS011;8269;50.990;4.494;2022-07-23T13:47:33;5.22;;;4.05;;
16320;SDS011;8269;50.990;4.494;2022-07-23T13:49:59;9.52;;;4.63;;
16320;SDS011;8269;50.990;4.494;2022-07-23T13:52:24;5.75;;;4.68;;
16320;SDS011;8269;50.990;4.494;2022-07-23T13:54:50;8.65;;;4.70;;
16320;SDS011;8269;50.990;4.494;2022-07-23T13:57:16;6.55;;;4.60;;
16320;SDS011;8269;50.990;4.494;2022-07-23T13:59:42;7.10;;;4.15;;
16320;SDS011;8269;50.990;4.494;2022-07-23T14:02:08;7.03;;;3.85;;
16320;SDS011;8269;50.990;4.494;2022-07-23T14:04:35;8.02;;;4.50;;
16320;SDS011;8269;50.990;4.494;2022-07-23T14:07:01;6.35;;;4.18;;
16320;SDS011;8269;50.990;4.494;2022-07-23T14:09:27;8.02;;;4.47;;
16320;SDS011;8269;50.990;4.494;2022-07-23T14:11:52;8.15;;;4.03;;
16320;SDS011;8269;50.990;4.494;2022-07-23T14:14:18;5.90;;;3.90;;
16320;SDS011;8269;50.990;4.494;2022-07-23T14:16:44;6.45;;;4.88;;
16320;SDS011;8269;50.990;4.494;2022-07-23T14:19:10;5.65;;;4.10;;
16320;SDS011;8269;50.990;4.494;2022-07-23T14:21:36;5.35;;;3.92;;
16320;SDS011;8269;50.990;4.494;2022-07-23T14:24:02;5.35;;;3.72;;
16320;SDS011;8269;50.990;4.494;2022-07-23T14:26:28;6.95;;;3.95;;
16320;SDS011;8269;50.990;4.494;2022-07-23T14:28:54;6.10;;;3.78;;
16320;SDS011;8269;50.990;4.494;2022-07-23T14:31:20;5.22;;;4.25;;
16320;SDS011;8269;50.990;4.494;2022-07-23T14:33:46;5.97;;;4.05;;
16320;SDS011;8269;50.990;4.494;2022-07-23T14:36:12;8.70;;;4.28;;
16320;SDS011;8269;50.990;4.494;2022-07-23T14:38:39;5.45;;;4.10;;
16320;SDS011;8269;50.990;4.494;2022-07-23T14:41:04;5.90;;;4.55;;
16320;SDS011;8269;50.990;4.494;2022-07-23T14:43:32;6.60;;;4.63;;
16320;SDS011;8269;50.990;4.494;2022-07-23T14:45:58;5.93;;;4.60;;
16320;SDS011;8269;50.990;4.494;2022-07-23T14:48:23;6.65;;;4.85;;
16320;SDS011;8269;50.990;4.494;2022-07-23T14:50:49;6.47;;;4.50;;
16320;SDS011;8269;50.990;4.494;2022-07-23T14:53:15;7.57;;;5.30;;
16320;SDS011;8269;50.990;4.494;2022-07-23T14:55:42;6.20;;;4.47;;
16320;SDS011;8269;50.990;4.494;2022-07-23T14:58:07;7.38;;;5.07;;
16320;SDS011;8269;50.990;4.494;2022-07-23T15:00:34;7.78;;;4.70;;
16320;SDS011;8269;50.990;4.494;2022-07-23T15:02:59;8.15;;;4.18;;
16320;SDS011;8269;50.990;4.494;2022-07-23T15:05:25;6.13;;;4.18;;
16320;SDS011;8269;50.990;4.494;2022-07-23T15:07:51;5.63;;;4.10;;
16320;SDS011;8269;50.990;4.494;2022-07-23T15:10:17;9.25;;;5.03;;
16320;SDS011;8269;50.990;4.494;2022-07-23T15:12:42;6.82;;;5.10;;
16320;SDS011;8269;50.990;4.494;2022-07-23T15:15:08;6.65;;;4.30;;
16320;SDS011;8269;50.990;4.494;2022-07-23T15:17:34;7.40;;;4.85;;
16320;SDS011;8269;50.990;4.494;2022-07-23T15:19:59;6.57;;;4.97;;
16320;SDS011;8269;50.990;4.494;2022-07-23T15:22:25;7.05;;;4.40;;
16320;SDS011;8269;50.990;4.494;2022-07-23T15:24:51;8.35;;;5.05;;
16320;SDS011;8269;50.990;4.494;2022-07-23T15:27:17;6.50;;;4.60;;
16320;SDS011;8269;50.990;4.494;2022-07-23T15:29:43;6.43;;;4.40;;
16320;SDS011;8269;50.990;4.494;2022-07-23T15:32:09;6.30;;;4.55;;
16320;SDS011;8269;50.990;4.494;2022-07-23T15:34:36;7.78;;;4.57;;
16320;SDS011;8269;50.990;4.494;2022-07-23T15:37:02;7.60;;;4.50;;
16320;SDS011;8269;50.990;4.494;2022-07-23T15:39:30;6.70;;;4.70;;
16320;SDS011;8269;50.990;4.494;2022-07-23T15:41:57;7.18;;;4.90;;
16320;SDS011;8269;50.990;4.494;2022-07-23T15:44:23;7.38;;;4.72;;
16320;SDS011;8269;50.990;4.494;2022-07-23T15:46:49;6.55;;;4.70;;